sensor_id;sensor_type;location;lat;lon;timestamp;P1;durP1;ratioP1;P2;durP2;ratioP2
69757;SDS011;57027;51.044;5.774;2022-10-16T00:00:29;2.03;;;1.40;;
69757;SDS011;57027;51.044;5.774;2022-10-16T00:02:54;4.10;;;1.58;;
69757;SDS011;57027;51.044;5.774;2022-10-16T00:05:20;3.50;;;1.33;;
69757;SDS011;57027;51.044;5.774;2022-10-16T00:07:45;2.55;;;1.30;;
69757;SDS011;57027;51.044;5.774;2022-10-16T00:10:11;3.17;;;1.60;;
69757;SDS011;57027;51.044;5.774;2022-10-16T00:12:36;2.90;;;1.70;;
69757;SDS011;57027;51.044;5.774;2022-10-16T00:15:02;1.90;;;1.10;;
69757;SDS011;57027;51.044;5.774;2022-10-16T00:17:27;1.92;;;1.10;;
69757;SDS011;57027;51.044;5.774;2022-10-16T00:19:54;1.75;;;0.98;;
69757;SDS011;57027;51.044;5.774;2022-10-16T00:22:20;3.57;;;1.30;;
69757;SDS011;57027;51.044;5.774;2022-10-16T00:24:45;3.27;;;1.43;;
69757;SDS011;57027;51.044;5.774;2022-10-16T00:27:10;3.13;;;1.47;;
69757;SDS011;57027;51.044;5.774;2022-10-16T00:29:36;8.73;;;1.30;;
69757;SDS011;57027;51.044;5.774;2022-10-16T00:32:01;3.23;;;1.33;;
69757;SDS011;57027;51.044;5.774;2022-10-16T00:34:26;2.80;;;1.10;;
69757;SDS011;57027;51.044;5.774;2022-10-16T00:36:52;2.03;;;1.13;;
69757;SDS011;57027;51.044;5.774;2022-10-16T00:39:17;2.70;;;1.30;;
69757;SDS011;57027;51.044;5.774;2022-10-16T00:41:42;6.65;;;1.20;;
69757;SDS011;57027;51.044;5.774;2022-10-16T00:47:12;2.75;;;1.27;;
69757;SDS011;57027;51.044;5.774;2022-10-16T00:49:42;1.90;;;1.27;;
69757;SDS011;57027;51.044;5.774;2022-10-16T00:52:08;2.23;;;0.90;;
69757;SDS011;57027;51.044;5.774;2022-10-16T00:54:35;3.53;;;0.98;;
69757;SDS011;57027;51.044;5.774;2022-10-16T00:57:01;4.43;;;1.23;;
69757;SDS011;57027;51.044;5.774;2022-10-16T00:59:34;3.95;;;1.40;;
69757;SDS011;57027;51.044;5.774;2022-10-16T01:02:03;2.03;;;1.08;;
69757;SDS011;57027;51.044;5.774;2022-10-16T01:04:37;2.73;;;0.93;;
69757;SDS011;57027;51.044;5.774;2022-10-16T01:12:38;5.00;;;1.10;;
69757;SDS011;57027;51.044;5.774;2022-10-16T01:20:34;5.97;;;1.83;;
69757;SDS011;57027;51.044;5.774;2022-10-16T01:23:10;1.98;;;1.00;;
69757;SDS011;57027;51.044;5.774;2022-10-16T01:29:02;1.83;;;0.88;;
69757;SDS011;57027;51.044;5.774;2022-10-16T01:31:43;2.27;;;0.90;;
69757;SDS011;57027;51.044;5.774;2022-10-16T01:34:22;3.00;;;1.10;;
69757;SDS011;57027;51.044;5.774;2022-10-16T01:36:57;8.30;;;1.10;;
69757;SDS011;57027;51.044;5.774;2022-10-16T01:39:30;2.58;;;1.10;;
69757;SDS011;57027;51.044;5.774;2022-10-16T01:42:00;1.75;;;1.00;;
69757;SDS011;57027;51.044;5.774;2022-10-16T01:44:32;4.27;;;1.10;;
69757;SDS011;57027;51.044;5.774;2022-10-16T01:47:01;5.05;;;1.20;;
69757;SDS011;57027;51.044;5.774;2022-10-16T01:49:27;2.28;;;1.15;;
69757;SDS011;57027;51.044;5.774;2022-10-16T01:51:56;2.03;;;1.10;;
69757;SDS011;57027;51.044;5.774;2022-10-16T01:54:27;1.63;;;1.10;;
69757;SDS011;57027;51.044;5.774;2022-10-16T01:56:56;3.43;;;1.17;;
69757;SDS011;57027;51.044;5.774;2022-10-16T01:59:23;4.55;;;1.30;;
69757;SDS011;57027;51.044;5.774;2022-10-16T02:01:58;3.00;;;1.05;;
69757;SDS011;57027;51.044;5.774;2022-10-16T02:04:39;3.40;;;1.17;;
69757;SDS011;57027;51.044;5.774;2022-10-16T02:07:08;1.52;;;0.90;;
69757;SDS011;57027;51.044;5.774;2022-10-16T02:09:35;1.10;;;0.80;;
69757;SDS011;57027;51.044;5.774;2022-10-16T02:12:03;1.63;;;0.80;;
69757;SDS011;57027;51.044;5.774;2022-10-16T02:14:36;5.00;;;0.90;;
69757;SDS011;57027;51.044;5.774;2022-10-16T02:17:09;4.93;;;1.00;;
69757;SDS011;57027;51.044;5.774;2022-10-16T02:19:39;4.18;;;1.05;;
69757;SDS011;57027;51.044;5.774;2022-10-16T02:22:06;2.10;;;0.90;;
69757;SDS011;57027;51.044;5.774;2022-10-16T02:27:33;4.55;;;1.10;;
69757;SDS011;57027;51.044;5.774;2022-10-16T02:30:07;1.80;;;1.10;;
69757;SDS011;57027;51.044;5.774;2022-10-16T02:32:43;1.40;;;0.88;;
69757;SDS011;57027;51.044;5.774;2022-10-16T02:35:11;2.30;;;0.90;;
69757;SDS011;57027;51.044;5.774;2022-10-16T02:37:37;2.20;;;1.10;;
69757;SDS011;57027;51.044;5.774;2022-10-16T02:40:03;5.57;;;1.30;;
69757;SDS011;57027;51.044;5.774;2022-10-16T02:42:34;3.95;;;1.08;;
69757;SDS011;57027;51.044;5.774;2022-10-16T02:45:00;1.77;;;0.95;;
69757;SDS011;57027;51.044;5.774;2022-10-16T02:47:26;2.92;;;1.10;;
69757;SDS011;57027;51.044;5.774;2022-10-16T02:49:51;1.80;;;0.90;;
69757;SDS011;57027;51.044;5.774;2022-10-16T02:52:17;2.53;;;1.10;;
69757;SDS011;57027;51.044;5.774;2022-10-16T02:54:42;1.87;;;1.00;;
69757;SDS011;57027;51.044;5.774;2022-10-16T02:57:07;1.67;;;0.90;;
69757;SDS011;57027;51.044;5.774;2022-10-16T02:59:33;1.80;;;0.80;;
69757;SDS011;57027;51.044;5.774;2022-10-16T03:01:59;1.80;;;1.00;;
69757;SDS011;57027;51.044;5.774;2022-10-16T03:04:25;1.88;;;0.80;;
69757;SDS011;57027;51.044;5.774;2022-10-16T03:06:50;2.10;;;1.10;;
69757;SDS011;57027;51.044;5.774;2022-10-16T03:09:15;2.20;;;1.15;;
69757;SDS011;57027;51.044;5.774;2022-10-16T03:11:41;1.55;;;1.00;;
69757;SDS011;57027;51.044;5.774;2022-10-16T03:14:06;4.07;;;1.10;;
69757;SDS011;57027;51.044;5.774;2022-10-16T03:16:31;2.20;;;0.97;;
69757;SDS011;57027;51.044;5.774;2022-10-16T03:18:57;2.10;;;1.00;;
69757;SDS011;57027;51.044;5.774;2022-10-16T03:21:22;1.90;;;1.00;;
69757;SDS011;57027;51.044;5.774;2022-10-16T03:23:47;2.50;;;1.20;;
69757;SDS011;57027;51.044;5.774;2022-10-16T03:26:13;1.90;;;0.90;;
69757;SDS011;57027;51.044;5.774;2022-10-16T03:28:38;2.47;;;1.00;;
69757;SDS011;57027;51.044;5.774;2022-10-16T03:31:03;2.00;;;1.13;;
69757;SDS011;57027;51.044;5.774;2022-10-16T03:33:29;1.80;;;1.10;;
69757;SDS011;57027;51.044;5.774;2022-10-16T03:35:54;2.07;;;1.03;;
69757;SDS011;57027;51.044;5.774;2022-10-16T03:38:20;2.80;;;1.10;;
69757;SDS011;57027;51.044;5.774;2022-10-16T03:40:46;3.00;;;1.10;;
69757;SDS011;57027;51.044;5.774;2022-10-16T03:43:12;2.55;;;1.17;;
69757;SDS011;57027;51.044;5.774;2022-10-16T03:45:37;2.67;;;1.10;;
69757;SDS011;57027;51.044;5.774;2022-10-16T03:48:03;3.43;;;1.03;;
69757;SDS011;57027;51.044;5.774;2022-10-16T03:50:28;1.93;;;0.80;;
69757;SDS011;57027;51.044;5.774;2022-10-16T03:52:54;3.15;;;1.05;;
69757;SDS011;57027;51.044;5.774;2022-10-16T03:55:20;3.20;;;1.37;;
69757;SDS011;57027;51.044;5.774;2022-10-16T03:57:45;2.05;;;1.00;;
69757;SDS011;57027;51.044;5.774;2022-10-16T04:00:10;1.40;;;0.93;;
69757;SDS011;57027;51.044;5.774;2022-10-16T04:02:36;2.75;;;1.00;;
69757;SDS011;57027;51.044;5.774;2022-10-16T04:05:02;6.40;;;1.20;;
69757;SDS011;57027;51.044;5.774;2022-10-16T04:07:28;2.00;;;1.27;;
69757;SDS011;57027;51.044;5.774;2022-10-16T04:09:53;1.92;;;1.17;;
69757;SDS011;57027;51.044;5.774;2022-10-16T04:12:22;2.45;;;1.30;;
69757;SDS011;57027;51.044;5.774;2022-10-16T04:14:47;2.20;;;0.80;;
69757;SDS011;57027;51.044;5.774;2022-10-16T04:17:12;2.90;;;1.30;;
69757;SDS011;57027;51.044;5.774;2022-10-16T04:19:38;3.10;;;1.30;;
69757;SDS011;57027;51.044;5.774;2022-10-16T04:22:03;2.20;;;1.17;;
69757;SDS011;57027;51.044;5.774;2022-10-16T04:24:28;4.53;;;1.30;;
69757;SDS011;57027;51.044;5.774;2022-10-16T04:26:53;3.47;;;1.30;;
69757;SDS011;57027;51.044;5.774;2022-10-16T04:29:19;2.83;;;1.50;;
69757;SDS011;57027;51.044;5.774;2022-10-16T04:31:44;2.28;;;1.30;;
69757;SDS011;57027;51.044;5.774;2022-10-16T04:34:09;2.67;;;1.63;;
69757;SDS011;57027;51.044;5.774;2022-10-16T04:36:35;3.57;;;1.20;;
69757;SDS011;57027;51.044;5.774;2022-10-16T04:39:00;2.20;;;1.40;;
69757;SDS011;57027;51.044;5.774;2022-10-16T04:41:25;2.60;;;1.40;;
69757;SDS011;57027;51.044;5.774;2022-10-16T04:43:51;2.73;;;1.70;;
69757;SDS011;57027;51.044;5.774;2022-10-16T04:46:16;3.60;;;1.40;;
69757;SDS011;57027;51.044;5.774;2022-10-16T04:48:41;4.27;;;1.53;;
69757;SDS011;57027;51.044;5.774;2022-10-16T04:51:07;2.40;;;1.57;;
69757;SDS011;57027;51.044;5.774;2022-10-16T04:53:32;3.00;;;1.33;;
69757;SDS011;57027;51.044;5.774;2022-10-16T04:55:58;3.17;;;1.48;;
69757;SDS011;57027;51.044;5.774;2022-10-16T04:58:25;9.40;;;2.07;;
69757;SDS011;57027;51.044;5.774;2022-10-16T05:00:50;3.30;;;1.75;;
69757;SDS011;57027;51.044;5.774;2022-10-16T05:03:16;4.17;;;1.53;;
69757;SDS011;57027;51.044;5.774;2022-10-16T05:05:44;1.83;;;1.07;;
69757;SDS011;57027;51.044;5.774;2022-10-16T05:08:11;2.50;;;1.40;;
69757;SDS011;57027;51.044;5.774;2022-10-16T05:10:38;2.15;;;1.17;;
69757;SDS011;57027;51.044;5.774;2022-10-16T05:13:04;3.72;;;1.70;;
69757;SDS011;57027;51.044;5.774;2022-10-16T05:15:29;6.53;;;1.67;;
69757;SDS011;57027;51.044;5.774;2022-10-16T05:17:54;3.50;;;1.50;;
69757;SDS011;57027;51.044;5.774;2022-10-16T05:20:21;3.20;;;1.55;;
69757;SDS011;57027;51.044;5.774;2022-10-16T05:22:47;4.07;;;1.60;;
69757;SDS011;57027;51.044;5.774;2022-10-16T05:25:13;2.65;;;1.70;;
69757;SDS011;57027;51.044;5.774;2022-10-16T05:27:38;4.47;;;1.70;;
69757;SDS011;57027;51.044;5.774;2022-10-16T05:30:04;3.10;;;1.60;;
69757;SDS011;57027;51.044;5.774;2022-10-16T05:32:29;4.33;;;2.03;;
69757;SDS011;57027;51.044;5.774;2022-10-16T05:34:56;5.05;;;1.70;;
69757;SDS011;57027;51.044;5.774;2022-10-16T05:37:21;3.87;;;1.80;;
69757;SDS011;57027;51.044;5.774;2022-10-16T05:39:48;5.25;;;2.03;;
69757;SDS011;57027;51.044;5.774;2022-10-16T05:42:13;4.30;;;1.83;;
69757;SDS011;57027;51.044;5.774;2022-10-16T05:44:39;4.68;;;1.70;;
69757;SDS011;57027;51.044;5.774;2022-10-16T05:47:04;6.67;;;1.73;;
69757;SDS011;57027;51.044;5.774;2022-10-16T05:49:30;4.37;;;1.97;;
69757;SDS011;57027;51.044;5.774;2022-10-16T05:51:55;3.17;;;1.67;;
69757;SDS011;57027;51.044;5.774;2022-10-16T05:54:20;4.53;;;1.90;;
69757;SDS011;57027;51.044;5.774;2022-10-16T05:56:46;3.45;;;2.10;;
69757;SDS011;57027;51.044;5.774;2022-10-16T05:59:11;3.27;;;2.13;;
69757;SDS011;57027;51.044;5.774;2022-10-16T06:01:36;4.07;;;1.90;;
69757;SDS011;57027;51.044;5.774;2022-10-16T06:04:02;5.30;;;2.23;;
69757;SDS011;57027;51.044;5.774;2022-10-16T06:06:28;3.20;;;2.10;;
69757;SDS011;57027;51.044;5.774;2022-10-16T06:08:55;4.03;;;2.13;;
69757;SDS011;57027;51.044;5.774;2022-10-16T06:11:22;3.85;;;2.15;;
69757;SDS011;57027;51.044;5.774;2022-10-16T06:13:51;5.65;;;2.10;;
69757;SDS011;57027;51.044;5.774;2022-10-16T06:16:18;3.65;;;2.17;;
69757;SDS011;57027;51.044;5.774;2022-10-16T06:18:44;2.60;;;1.83;;
69757;SDS011;57027;51.044;5.774;2022-10-16T06:21:20;4.57;;;1.50;;
69757;SDS011;57027;51.044;5.774;2022-10-16T06:23:47;5.85;;;1.88;;
69757;SDS011;57027;51.044;5.774;2022-10-16T06:26:13;7.18;;;2.05;;
69757;SDS011;57027;51.044;5.774;2022-10-16T06:28:41;3.00;;;1.80;;
69757;SDS011;57027;51.044;5.774;2022-10-16T06:31:08;4.13;;;2.00;;
69757;SDS011;57027;51.044;5.774;2022-10-16T06:33:35;4.40;;;1.90;;
69757;SDS011;57027;51.044;5.774;2022-10-16T06:36:02;3.22;;;1.80;;
69757;SDS011;57027;51.044;5.774;2022-10-16T06:38:29;3.15;;;1.70;;
69757;SDS011;57027;51.044;5.774;2022-10-16T06:40:55;3.13;;;1.50;;
69757;SDS011;57027;51.044;5.774;2022-10-16T06:43:20;3.10;;;1.42;;
69757;SDS011;57027;51.044;5.774;2022-10-16T06:45:52;3.92;;;2.03;;
69757;SDS011;57027;51.044;5.774;2022-10-16T06:48:22;3.40;;;1.88;;
69757;SDS011;57027;51.044;5.774;2022-10-16T06:53:38;5.30;;;2.20;;
69757;SDS011;57027;51.044;5.774;2022-10-16T06:56:08;3.63;;;1.55;;
69757;SDS011;57027;51.044;5.774;2022-10-16T06:58:48;5.20;;;1.67;;
69757;SDS011;57027;51.044;5.774;2022-10-16T07:01:13;4.27;;;1.97;;
69757;SDS011;57027;51.044;5.774;2022-10-16T07:03:40;2.83;;;1.40;;
69757;SDS011;57027;51.044;5.774;2022-10-16T07:06:07;3.45;;;1.67;;
69757;SDS011;57027;51.044;5.774;2022-10-16T07:08:34;3.85;;;1.60;;
69757;SDS011;57027;51.044;5.774;2022-10-16T07:11:03;3.15;;;1.40;;
69757;SDS011;57027;51.044;5.774;2022-10-16T07:13:32;2.53;;;1.60;;
69757;SDS011;57027;51.044;5.774;2022-10-16T07:16:03;6.63;;;1.80;;
69757;SDS011;57027;51.044;5.774;2022-10-16T07:18:34;3.33;;;1.70;;
69757;SDS011;57027;51.044;5.774;2022-10-16T07:21:05;4.72;;;1.70;;
69757;SDS011;57027;51.044;5.774;2022-10-16T07:23:36;6.35;;;1.95;;
69757;SDS011;57027;51.044;5.774;2022-10-16T07:26:02;4.57;;;2.00;;
69757;SDS011;57027;51.044;5.774;2022-10-16T07:28:28;5.13;;;2.10;;
69757;SDS011;57027;51.044;5.774;2022-10-16T07:30:54;3.70;;;2.30;;
69757;SDS011;57027;51.044;5.774;2022-10-16T07:33:20;6.20;;;2.77;;
69757;SDS011;57027;51.044;5.774;2022-10-16T07:35:49;4.60;;;2.10;;
69757;SDS011;57027;51.044;5.774;2022-10-16T07:38:19;6.30;;;2.17;;
69757;SDS011;57027;51.044;5.774;2022-10-16T07:40:45;6.57;;;1.95;;
69757;SDS011;57027;51.044;5.774;2022-10-16T07:43:11;3.17;;;1.95;;
69757;SDS011;57027;51.044;5.774;2022-10-16T07:45:37;3.53;;;1.70;;
69757;SDS011;57027;51.044;5.774;2022-10-16T07:48:03;4.80;;;1.90;;
69757;SDS011;57027;51.044;5.774;2022-10-16T07:50:28;12.63;;;2.35;;
69757;SDS011;57027;51.044;5.774;2022-10-16T07:52:54;3.33;;;1.77;;
69757;SDS011;57027;51.044;5.774;2022-10-16T07:55:19;5.53;;;1.97;;
69757;SDS011;57027;51.044;5.774;2022-10-16T07:57:44;3.60;;;1.80;;
69757;SDS011;57027;51.044;5.774;2022-10-16T08:00:10;5.33;;;1.90;;
69757;SDS011;57027;51.044;5.774;2022-10-16T08:02:39;3.53;;;1.73;;
69757;SDS011;57027;51.044;5.774;2022-10-16T08:05:05;5.22;;;1.92;;
69757;SDS011;57027;51.044;5.774;2022-10-16T08:07:30;4.13;;;1.53;;
69757;SDS011;57027;51.044;5.774;2022-10-16T08:09:56;5.15;;;1.75;;
69757;SDS011;57027;51.044;5.774;2022-10-16T08:12:23;6.90;;;1.80;;
69757;SDS011;57027;51.044;5.774;2022-10-16T08:14:48;4.70;;;1.58;;
69757;SDS011;57027;51.044;5.774;2022-10-16T08:17:14;3.90;;;1.30;;
69757;SDS011;57027;51.044;5.774;2022-10-16T08:19:43;4.25;;;1.60;;
69757;SDS011;57027;51.044;5.774;2022-10-16T08:22:09;2.60;;;1.00;;
69757;SDS011;57027;51.044;5.774;2022-10-16T08:24:34;3.28;;;1.50;;
69757;SDS011;57027;51.044;5.774;2022-10-16T08:27:01;4.00;;;1.47;;
69757;SDS011;57027;51.044;5.774;2022-10-16T08:29:27;2.67;;;1.20;;
69757;SDS011;57027;51.044;5.774;2022-10-16T08:31:52;3.90;;;1.13;;
69757;SDS011;57027;51.044;5.774;2022-10-16T08:34:18;1.90;;;0.97;;
69757;SDS011;57027;51.044;5.774;2022-10-16T08:36:43;6.35;;;1.00;;
69757;SDS011;57027;51.044;5.774;2022-10-16T08:39:09;4.27;;;1.03;;
69757;SDS011;57027;51.044;5.774;2022-10-16T08:49:36;3.27;;;1.10;;
69757;SDS011;57027;51.044;5.774;2022-10-16T08:52:02;4.22;;;0.90;;
69757;SDS011;57027;51.044;5.774;2022-10-16T08:54:29;4.33;;;0.80;;
69757;SDS011;57027;51.044;5.774;2022-10-16T08:57:01;2.70;;;0.65;;
69757;SDS011;57027;51.044;5.774;2022-10-16T08:59:34;2.55;;;0.90;;
69757;SDS011;57027;51.044;5.774;2022-10-16T09:01:59;3.60;;;1.20;;
69757;SDS011;57027;51.044;5.774;2022-10-16T09:05:09;9.50;;;0.90;;
69757;SDS011;57027;51.044;5.774;2022-10-16T09:09:54;3.22;;;0.63;;
69757;SDS011;57027;51.044;5.774;2022-10-16T09:12:37;2.22;;;0.82;;
69757;SDS011;57027;51.044;5.774;2022-10-16T09:17:45;2.53;;;0.60;;
69757;SDS011;57027;51.044;5.774;2022-10-16T09:23:17;4.10;;;0.90;;
69757;SDS011;57027;51.044;5.774;2022-10-16T09:25:47;1.70;;;0.85;;
69757;SDS011;57027;51.044;5.774;2022-10-16T09:28:15;3.25;;;1.05;;
69757;SDS011;57027;51.044;5.774;2022-10-16T09:30:41;3.70;;;0.75;;
69757;SDS011;57027;51.044;5.774;2022-10-16T09:33:07;3.28;;;0.82;;
69757;SDS011;57027;51.044;5.774;2022-10-16T09:38:28;4.40;;;0.98;;
69757;SDS011;57027;51.044;5.774;2022-10-16T09:41:28;3.92;;;0.93;;
69757;SDS011;57027;51.044;5.774;2022-10-16T09:46:33;2.88;;;0.80;;
69757;SDS011;57027;51.044;5.774;2022-10-16T09:49:01;3.73;;;0.80;;
69757;SDS011;57027;51.044;5.774;2022-10-16T09:51:43;2.58;;;0.80;;
69757;SDS011;57027;51.044;5.774;2022-10-16T09:56:34;2.53;;;0.80;;
69757;SDS011;57027;51.044;5.774;2022-10-16T09:59:10;3.28;;;0.80;;
69757;SDS011;57027;51.044;5.774;2022-10-16T10:01:43;2.67;;;0.65;;
69757;SDS011;57027;51.044;5.774;2022-10-16T10:04:11;2.50;;;0.90;;
69757;SDS011;57027;51.044;5.774;2022-10-16T10:06:40;3.57;;;0.77;;
69757;SDS011;57027;51.044;5.774;2022-10-16T10:09:34;3.58;;;0.90;;
69757;SDS011;57027;51.044;5.774;2022-10-16T10:12:04;7.47;;;1.00;;
69757;SDS011;57027;51.044;5.774;2022-10-16T10:14:32;2.42;;;0.75;;
69757;SDS011;57027;51.044;5.774;2022-10-16T10:19:29;2.50;;;1.13;;
69757;SDS011;57027;51.044;5.774;2022-10-16T10:21:55;5.83;;;0.90;;
69757;SDS011;57027;51.044;5.774;2022-10-16T10:24:20;1.45;;;0.60;;
69757;SDS011;57027;51.044;5.774;2022-10-16T10:26:51;3.53;;;0.77;;
69757;SDS011;57027;51.044;5.774;2022-10-16T10:37:27;3.30;;;1.52;;
69757;SDS011;57027;51.044;5.774;2022-10-16T10:40:02;1.98;;;0.98;;
69757;SDS011;57027;51.044;5.774;2022-10-16T10:42:35;4.65;;;0.98;;
69757;SDS011;57027;51.044;5.774;2022-10-16T10:50:43;2.85;;;0.63;;
69757;SDS011;57027;51.044;5.774;2022-10-16T11:02:10;4.03;;;0.90;;
69757;SDS011;57027;51.044;5.774;2022-10-16T11:07:17;1.48;;;0.80;;
69757;SDS011;57027;51.044;5.774;2022-10-16T11:09:47;4.18;;;0.80;;
69757;SDS011;57027;51.044;5.774;2022-10-16T11:12:17;2.30;;;0.70;;
69757;SDS011;57027;51.044;5.774;2022-10-16T11:17:42;2.58;;;0.70;;
69757;SDS011;57027;51.044;5.774;2022-10-16T11:20:17;2.75;;;0.80;;
69757;SDS011;57027;51.044;5.774;2022-10-16T11:22:48;3.72;;;1.23;;
69757;SDS011;57027;51.044;5.774;2022-10-16T11:25:20;10.07;;;1.35;;
69757;SDS011;57027;51.044;5.774;2022-10-16T11:28:01;2.30;;;0.77;;
69757;SDS011;57027;51.044;5.774;2022-10-16T11:30:45;2.38;;;0.77;;
69757;SDS011;57027;51.044;5.774;2022-10-16T11:35:47;3.92;;;0.60;;
69757;SDS011;57027;51.044;5.774;2022-10-16T11:39:01;2.95;;;0.77;;
69757;SDS011;57027;51.044;5.774;2022-10-16T11:41:26;2.17;;;0.70;;
69757;SDS011;57027;51.044;5.774;2022-10-16T11:44:06;1.67;;;0.60;;
69757;SDS011;57027;51.044;5.774;2022-10-16T11:46:42;2.00;;;0.60;;
69757;SDS011;57027;51.044;5.774;2022-10-16T11:49:18;4.32;;;0.80;;
69757;SDS011;57027;51.044;5.774;2022-10-16T11:51:52;1.95;;;0.70;;
69757;SDS011;57027;51.044;5.774;2022-10-16T11:57:17;1.50;;;0.80;;
69757;SDS011;57027;51.044;5.774;2022-10-16T11:59:54;2.03;;;0.73;;
69757;SDS011;57027;51.044;5.774;2022-10-16T12:05:06;3.15;;;0.90;;
69757;SDS011;57027;51.044;5.774;2022-10-16T12:07:37;5.07;;;0.80;;
69757;SDS011;57027;51.044;5.774;2022-10-16T12:10:20;1.05;;;0.60;;
69757;SDS011;57027;51.044;5.774;2022-10-16T12:12:48;2.55;;;0.70;;
69757;SDS011;57027;51.044;5.774;2022-10-16T12:17:52;4.00;;;0.98;;
69757;SDS011;57027;51.044;5.774;2022-10-16T12:23:02;5.15;;;1.08;;
69757;SDS011;57027;51.044;5.774;2022-10-16T12:25:36;3.87;;;0.70;;
69757;SDS011;57027;51.044;5.774;2022-10-16T12:28:21;3.42;;;0.70;;
69757;SDS011;57027;51.044;5.774;2022-10-16T12:31:09;2.65;;;0.88;;
69757;SDS011;57027;51.044;5.774;2022-10-16T12:33:41;1.63;;;0.77;;
69757;SDS011;57027;51.044;5.774;2022-10-16T12:36:26;2.75;;;0.80;;
69757;SDS011;57027;51.044;5.774;2022-10-16T12:38:57;6.47;;;0.90;;
69757;SDS011;57027;51.044;5.774;2022-10-16T12:41:33;2.45;;;0.70;;
69757;SDS011;57027;51.044;5.774;2022-10-16T12:44:02;4.30;;;0.90;;
69757;SDS011;57027;51.044;5.774;2022-10-16T12:49:04;5.53;;;0.75;;
69757;SDS011;57027;51.044;5.774;2022-10-16T12:51:39;3.43;;;0.80;;
69757;SDS011;57027;51.044;5.774;2022-10-16T13:02:59;2.95;;;0.57;;
69757;SDS011;57027;51.044;5.774;2022-10-16T13:14:07;3.30;;;0.88;;
69757;SDS011;57027;51.044;5.774;2022-10-16T13:16:49;5.05;;;0.75;;
69757;SDS011;57027;51.044;5.774;2022-10-16T13:27:35;3.50;;;0.73;;
69757;SDS011;57027;51.044;5.774;2022-10-16T13:30:15;1.90;;;0.70;;
69757;SDS011;57027;51.044;5.774;2022-10-16T13:32:46;4.57;;;0.70;;
69757;SDS011;57027;51.044;5.774;2022-10-16T13:35:18;2.15;;;0.60;;
69757;SDS011;57027;51.044;5.774;2022-10-16T13:37:45;3.10;;;0.80;;
69757;SDS011;57027;51.044;5.774;2022-10-16T13:40:31;3.17;;;1.03;;
69757;SDS011;57027;51.044;5.774;2022-10-16T13:42:59;2.05;;;0.90;;
69757;SDS011;57027;51.044;5.774;2022-10-16T13:45:25;3.35;;;1.20;;
69757;SDS011;57027;51.044;5.774;2022-10-16T13:48:04;4.55;;;1.20;;
69757;SDS011;57027;51.044;5.774;2022-10-16T13:50:31;1.97;;;0.97;;
69757;SDS011;57027;51.044;5.774;2022-10-16T13:53:03;4.43;;;1.00;;
69757;SDS011;57027;51.044;5.774;2022-10-16T13:55:38;2.83;;;0.90;;
69757;SDS011;57027;51.044;5.774;2022-10-16T13:58:04;4.20;;;1.00;;
69757;SDS011;57027;51.044;5.774;2022-10-16T14:00:34;1.97;;;0.90;;
69757;SDS011;57027;51.044;5.774;2022-10-16T14:03:04;2.15;;;1.10;;
69757;SDS011;57027;51.044;5.774;2022-10-16T14:05:32;3.03;;;0.90;;
69757;SDS011;57027;51.044;5.774;2022-10-16T14:07:57;3.83;;;1.53;;
69757;SDS011;57027;51.044;5.774;2022-10-16T14:10:25;2.73;;;1.20;;
69757;SDS011;57027;51.044;5.774;2022-10-16T14:12:55;1.83;;;0.98;;
69757;SDS011;57027;51.044;5.774;2022-10-16T14:15:22;1.98;;;0.98;;
69757;SDS011;57027;51.044;5.774;2022-10-16T14:17:48;5.03;;;1.13;;
69757;SDS011;57027;51.044;5.774;2022-10-16T14:20:16;3.30;;;0.80;;
69757;SDS011;57027;51.044;5.774;2022-10-16T14:22:42;2.37;;;0.90;;
69757;SDS011;57027;51.044;5.774;2022-10-16T14:27:56;2.95;;;0.98;;
69757;SDS011;57027;51.044;5.774;2022-10-16T14:30:24;6.50;;;0.80;;
69757;SDS011;57027;51.044;5.774;2022-10-16T14:33:50;1.43;;;0.70;;
69757;SDS011;57027;51.044;5.774;2022-10-16T14:35:59;4.47;;;0.85;;
69757;SDS011;57027;51.044;5.774;2022-10-16T14:38:41;3.25;;;1.10;;
69757;SDS011;57027;51.044;5.774;2022-10-16T14:41:08;2.13;;;0.90;;
69757;SDS011;57027;51.044;5.774;2022-10-16T14:43:35;2.00;;;0.90;;
69757;SDS011;57027;51.044;5.774;2022-10-16T14:46:03;3.53;;;0.90;;
69757;SDS011;57027;51.044;5.774;2022-10-16T14:48:40;1.27;;;0.60;;
69757;SDS011;57027;51.044;5.774;2022-10-16T14:51:08;2.25;;;0.80;;
69757;SDS011;57027;51.044;5.774;2022-10-16T14:53:39;3.80;;;1.00;;
69757;SDS011;57027;51.044;5.774;2022-10-16T14:56:08;4.57;;;1.20;;
69757;SDS011;57027;51.044;5.774;2022-10-16T14:58:39;2.13;;;0.70;;
69757;SDS011;57027;51.044;5.774;2022-10-16T15:01:04;3.78;;;0.90;;
69757;SDS011;57027;51.044;5.774;2022-10-16T15:03:31;3.38;;;0.80;;
69757;SDS011;57027;51.044;5.774;2022-10-16T15:05:57;2.80;;;1.03;;
69757;SDS011;57027;51.044;5.774;2022-10-16T15:08:22;1.73;;;0.80;;
69757;SDS011;57027;51.044;5.774;2022-10-16T15:10:47;2.37;;;0.83;;
69757;SDS011;57027;51.044;5.774;2022-10-16T15:13:13;3.27;;;0.93;;
69757;SDS011;57027;51.044;5.774;2022-10-16T15:15:41;2.50;;;0.80;;
69757;SDS011;57027;51.044;5.774;2022-10-16T15:18:08;4.50;;;0.80;;
69757;SDS011;57027;51.044;5.774;2022-10-16T15:20:34;4.55;;;0.85;;
69757;SDS011;57027;51.044;5.774;2022-10-16T15:23:02;3.73;;;1.10;;
69757;SDS011;57027;51.044;5.774;2022-10-16T15:28:06;2.75;;;0.80;;
69757;SDS011;57027;51.044;5.774;2022-10-16T15:30:33;2.38;;;1.23;;
69757;SDS011;57027;51.044;5.774;2022-10-16T15:32:58;4.40;;;1.00;;
69757;SDS011;57027;51.044;5.774;2022-10-16T15:35:24;2.67;;;0.90;;
69757;SDS011;57027;51.044;5.774;2022-10-16T15:37:50;1.07;;;0.63;;
69757;SDS011;57027;51.044;5.774;2022-10-16T15:40:16;2.60;;;0.88;;
69757;SDS011;57027;51.044;5.774;2022-10-16T15:42:42;7.22;;;1.17;;
69757;SDS011;57027;51.044;5.774;2022-10-16T15:45:08;2.55;;;1.10;;
69757;SDS011;57027;51.044;5.774;2022-10-16T15:47:34;2.80;;;0.90;;
69757;SDS011;57027;51.044;5.774;2022-10-16T15:50:00;3.77;;;0.73;;
69757;SDS011;57027;51.044;5.774;2022-10-16T15:52:25;1.60;;;0.83;;
69757;SDS011;57027;51.044;5.774;2022-10-16T15:54:51;2.40;;;0.80;;
69757;SDS011;57027;51.044;5.774;2022-10-16T15:57:16;3.07;;;0.80;;
69757;SDS011;57027;51.044;5.774;2022-10-16T15:59:41;4.83;;;0.80;;
69757;SDS011;57027;51.044;5.774;2022-10-16T16:02:08;4.40;;;0.83;;
69757;SDS011;57027;51.044;5.774;2022-10-16T16:04:34;3.15;;;0.95;;
69757;SDS011;57027;51.044;5.774;2022-10-16T16:06:59;2.43;;;1.30;;
69757;SDS011;57027;51.044;5.774;2022-10-16T16:09:26;2.38;;;0.90;;
69757;SDS011;57027;51.044;5.774;2022-10-16T16:11:51;3.80;;;0.80;;
69757;SDS011;57027;51.044;5.774;2022-10-16T16:14:18;5.25;;;1.08;;
69757;SDS011;57027;51.044;5.774;2022-10-16T16:16:43;3.57;;;0.90;;
69757;SDS011;57027;51.044;5.774;2022-10-16T16:19:08;3.10;;;0.93;;
69757;SDS011;57027;51.044;5.774;2022-10-16T16:21:34;1.87;;;1.07;;
69757;SDS011;57027;51.044;5.774;2022-10-16T16:24:00;4.53;;;1.10;;
69757;SDS011;57027;51.044;5.774;2022-10-16T16:26:27;8.57;;;1.63;;
69757;SDS011;57027;51.044;5.774;2022-10-16T16:28:57;2.55;;;1.05;;
69757;SDS011;57027;51.044;5.774;2022-10-16T16:31:26;2.60;;;1.17;;
69757;SDS011;57027;51.044;5.774;2022-10-16T16:33:53;2.05;;;1.30;;
69757;SDS011;57027;51.044;5.774;2022-10-16T16:36:19;3.40;;;1.33;;
69757;SDS011;57027;51.044;5.774;2022-10-16T16:38:45;2.77;;;1.17;;
69757;SDS011;57027;51.044;5.774;2022-10-16T16:41:15;3.75;;;1.17;;
69757;SDS011;57027;51.044;5.774;2022-10-16T16:43:44;3.00;;;1.10;;
69757;SDS011;57027;51.044;5.774;2022-10-16T16:46:10;3.40;;;1.38;;
69757;SDS011;57027;51.044;5.774;2022-10-16T16:48:36;4.07;;;1.33;;
69757;SDS011;57027;51.044;5.774;2022-10-16T16:51:07;3.92;;;1.50;;
69757;SDS011;57027;51.044;5.774;2022-10-16T16:53:34;5.45;;;1.50;;
69757;SDS011;57027;51.044;5.774;2022-10-16T16:56:01;3.95;;;1.35;;
69757;SDS011;57027;51.044;5.774;2022-10-16T16:58:28;6.13;;;1.80;;
69757;SDS011;57027;51.044;5.774;2022-10-16T17:00:53;5.93;;;2.00;;